createdAt,value
2018-05-27T00:02:07.283Z,82.50
2018-05-27T00:04:35.660Z,82.30
2018-05-27T00:07:03.932Z,87.40
2018-05-27T00:09:32.181Z,87.20
2018-05-27T00:12:00.427Z,86.30
2018-05-27T00:14:29.015Z,85.80
2018-05-27T00:16:57.375Z,86.50
2018-05-27T00:19:26.739Z,84.60
2018-05-27T00:21:55.024Z,84.60
2018-05-27T00:24:25.157Z,87.70
2018-05-27T00:26:53.388Z,87.60
2018-05-27T00:29:21.663Z,90.20
2018-05-27T00:31:49.922Z,85.70
2018-05-27T00:34:18.168Z,87.30
2018-05-27T00:36:46.576Z,87.30
2018-05-27T00:39:14.819Z,86.00
2018-05-27T00:41:43.063Z,85.30
2018-05-27T00:44:11.336Z,83.10
2018-05-27T00:46:39.581Z,86.70
2018-05-27T00:49:07.823Z,88.60
2018-05-27T00:51:36.093Z,90.30
2018-05-27T00:54:04.547Z,88.70
2018-05-27T00:56:32.800Z,88.80
2018-05-27T00:59:01.632Z,90.70
2018-05-27T01:01:31.555Z,92.20
2018-05-27T01:04:00.563Z,88.80
2018-05-27T01:06:28.839Z,88.90
2018-05-27T01:08:57.273Z,93.20
2018-05-27T01:11:25.532Z,90.70
2018-05-27T01:13:53.800Z,90.90
2018-05-27T01:16:22.051Z,90.40
2018-05-27T01:18:50.308Z,91.60
2018-05-27T01:21:18.940Z,90.70
2018-05-27T01:23:47.236Z,93.30
2018-05-27T01:26:15.481Z,93.40
2018-05-27T01:28:43.755Z,92.50
2018-05-27T01:31:11.997Z,91.60
2018-05-27T01:33:41.046Z,93.20
2018-05-27T01:36:09.312Z,93.70
2018-05-27T01:38:37.556Z,93.00
2018-05-27T01:41:05.818Z,92.10
2018-05-27T01:43:34.655Z,90.90
2018-05-27T01:46:02.960Z,93.80
2018-05-27T01:48:31.212Z,92.70
2018-05-27T01:51:00.272Z,91.50
2018-05-27T01:53:28.528Z,92.60
2018-05-27T01:55:57.262Z,93.50
2018-05-27T01:58:25.511Z,93.40
2018-05-27T02:00:53.764Z,92.80
2018-05-27T02:03:22.248Z,92.30
2018-05-27T02:05:51.613Z,93.80
2018-05-27T02:08:19.876Z,93.70
2018-05-27T02:10:48.120Z,96.10
2018-05-27T02:13:16.392Z,92.70
2018-05-27T02:15:45.425Z,94.90
2018-05-27T02:18:13.664Z,95.00
2018-05-27T02:20:42.491Z,96.00
2018-05-27T02:23:10.743Z,93.90
2018-05-27T02:25:39.056Z,94.70
2018-05-27T02:28:07.408Z,93.30
2018-05-27T02:30:35.674Z,93.10
2018-05-27T02:33:03.912Z,95.10
2018-05-27T02:35:32.192Z,94.80
2018-05-27T02:38:01.216Z,95.00
2018-05-27T02:40:29.469Z,94.90
2018-05-27T02:42:58.525Z,94.60
2018-05-27T02:45:26.779Z,94.60
2018-05-27T02:47:55.032Z,93.30
2018-05-27T02:50:23.827Z,94.70
2018-05-27T02:52:52.270Z,93.90
2018-05-27T02:55:20.528Z,93.80
2018-05-27T02:57:48.803Z,93.40
2018-05-27T03:00:17.074Z,93.80
2018-05-27T03:02:45.332Z,96.10
2018-05-27T03:05:15.504Z,94.40
2018-05-27T03:07:43.775Z,92.90
2018-05-27T03:10:12.039Z,93.90
2018-05-27T03:12:40.905Z,96.20
2018-05-27T03:15:09.172Z,97.80
2018-05-27T03:17:37.422Z,96.70
2018-05-27T03:20:05.698Z,94.40
2018-05-27T03:22:34.715Z,95.80
2018-05-27T03:25:02.968Z,95.80
2018-05-27T03:27:31.243Z,94.20
2018-05-27T03:29:59.518Z,96.90
2018-05-27T03:32:28.535Z,97.10
2018-05-27T03:34:57.008Z,97.20
2018-05-27T03:37:25.256Z,95.10
2018-05-27T03:39:54.279Z,94.00
2018-05-27T03:42:22.555Z,94.00
2018-05-27T03:44:50.802Z,93.90
2018-05-27T03:47:19.064Z,93.30
2018-05-27T03:49:47.790Z,94.20
2018-05-27T03:52:16.041Z,93.70
2018-05-27T03:54:45.804Z,96.60
2018-05-27T03:57:14.227Z,96.60
2018-05-27T03:59:42.484Z,97.50
2018-05-27T04:02:10.756Z,96.90
2018-05-27T04:04:59.509Z,95.90
2018-05-27T04:07:39.808Z,96.70
2018-05-27T04:10:08.098Z,96.90
2018-05-27T04:12:36.343Z,94.90
2018-05-27T04:15:04.892Z,95.20
2018-05-27T04:17:33.237Z,97.50
2018-05-27T04:20:01.508Z,97.40
2018-05-27T04:22:30.521Z,97.30
2018-05-27T04:24:58.804Z,97.20
2018-05-27T04:27:27.052Z,96.30
2018-05-27T04:29:55.309Z,97.80
2018-05-27T04:32:23.577Z,97.80
2018-05-27T04:34:53.828Z,98.10
2018-05-27T04:37:22.099Z,98.10
2018-05-27T04:39:50.748Z,97.70
2018-05-27T04:42:18.995Z,97.30
2018-05-27T04:44:47.257Z,96.90
2018-05-27T04:47:16.740Z,97.10
2018-05-27T04:49:45.888Z,98.80
2018-05-27T04:52:14.147Z,98.70
2018-05-27T04:54:42.435Z,99.40
2018-05-27T04:57:10.694Z,99.10
2018-05-27T04:59:38.961Z,98.20
2018-05-27T05:02:07.635Z,98.80
2018-05-27T05:04:36.662Z,98.10
2018-05-27T05:07:04.915Z,98.10
2018-05-27T05:09:34.367Z,97.20
2018-05-27T05:12:02.616Z,97.50
2018-05-27T05:14:30.867Z,98.60
2018-05-27T05:16:59.144Z,98.10
2018-05-27T05:19:28.172Z,97.10
2018-05-27T05:21:56.458Z,97.20
2018-05-27T05:24:25.537Z,97.20
2018-05-27T05:26:54.196Z,97.20
2018-05-27T05:29:23.222Z,97.90
2018-05-27T05:31:51.499Z,97.80
2018-05-27T05:34:19.752Z,96.90
2018-05-27T05:36:48.032Z,97.20
2018-05-27T05:39:16.303Z,96.90
2018-05-27T05:41:44.568Z,96.70
2018-05-27T05:44:12.819Z,96.80
2018-05-27T05:46:41.280Z,95.70
2018-05-27T05:49:09.532Z,95.90
2018-05-27T05:51:37.784Z,95.10
2018-05-27T05:54:06.063Z,95.20
2018-05-27T05:56:35.076Z,95.40
2018-05-27T05:59:03.332Z,95.40
2018-05-27T06:01:31.608Z,94.90
2018-05-27T06:03:59.879Z,96.40
2018-05-27T06:06:29.139Z,95.30
2018-05-27T06:08:57.479Z,95.30
2018-05-27T06:11:25.960Z,95.30
2018-05-27T06:13:54.969Z,95.70
2018-05-27T06:16:23.252Z,95.70
2018-05-27T06:18:51.507Z,95.80
2018-05-27T06:21:19.784Z,95.80
2018-05-27T06:23:48.062Z,95.90
2018-05-27T06:26:16.316Z,95.70
2018-05-27T06:28:44.575Z,96.10
2018-05-27T06:31:13.036Z,95.60
2018-05-27T06:33:41.289Z,95.30
2018-05-27T06:36:09.544Z,95.20
2018-05-27T06:38:37.822Z,95.80
2018-05-27T06:41:06.097Z,96.10
2018-05-27T06:43:34.384Z,96.20
2018-05-27T06:46:03.198Z,95.70
2018-05-27T06:48:31.458Z,95.30
2018-05-27T06:50:59.688Z,94.80
2018-05-27T06:53:29.048Z,94.90
2018-05-27T06:55:57.291Z,94.90
2018-05-27T06:58:25.539Z,94.90
2018-05-27T07:00:53.819Z,94.50
2018-05-27T07:03:22.842Z,94.00
2018-05-27T07:05:51.107Z,94.00
2018-05-27T07:08:19.383Z,93.80
2018-05-27T07:10:47.632Z,93.60
2018-05-27T07:13:16.335Z,93.40
2018-05-27T07:15:45.712Z,92.60
2018-05-27T07:18:14.332Z,92.50
2018-05-27T07:20:43.344Z,92.50
2018-05-27T07:23:11.719Z,92.50
2018-05-27T07:25:39.977Z,91.90
2018-05-27T07:28:08.286Z,91.50
2018-05-27T07:30:36.559Z,91.90
2018-05-27T07:33:04.807Z,92.10
2018-05-27T07:35:33.072Z,92.00
2018-05-27T07:38:01.418Z,91.70
2018-05-27T07:40:29.741Z,91.00
2018-05-27T07:42:58.792Z,90.50
2018-05-27T07:45:27.139Z,90.50
2018-05-27T07:47:55.491Z,90.70
2018-05-27T07:50:24.510Z,90.20
2018-05-27T07:52:52.785Z,90.20
2018-05-27T07:55:21.036Z,90.30
2018-05-27T07:57:49.308Z,90.10
2018-05-27T08:00:18.651Z,90.70
2018-05-27T08:02:46.919Z,90.60
2018-05-27T08:05:15.161Z,90.40
2018-05-27T08:07:43.443Z,90.10
2018-05-27T08:10:12.472Z,89.50
2018-05-27T08:12:40.819Z,89.50
2018-05-27T08:15:10.147Z,89.80
2018-05-27T08:17:38.396Z,89.70
2018-05-27T08:20:06.763Z,90.00
2018-05-27T08:22:35.620Z,89.40
2018-05-27T08:25:03.881Z,88.70
2018-05-27T08:27:32.128Z,89.20
2018-05-27T08:30:00.419Z,88.60
2018-05-27T08:32:28.673Z,83.70
2018-05-27T08:34:57.208Z,85.40
2018-05-27T08:37:25.479Z,84.80
2018-05-27T08:39:54.588Z,84.70
2018-05-27T08:42:22.844Z,84.30
2018-05-27T08:44:51.755Z,83.50
2018-05-27T08:47:19.991Z,83.90
2018-05-27T08:49:48.260Z,83.70
2018-05-27T08:52:16.530Z,84.00
2018-05-27T08:54:45.808Z,85.40
2018-05-27T08:57:14.088Z,84.60
2018-05-27T08:59:42.348Z,84.00
2018-05-27T09:02:10.613Z,83.50
2018-05-27T09:04:38.855Z,83.40
2018-05-27T09:07:07.518Z,82.20
2018-05-27T09:09:35.761Z,83.20
2018-05-27T09:12:04.005Z,82.80
2018-05-27T09:14:32.311Z,81.90
2018-05-27T09:17:01.865Z,80.00
2018-05-27T09:19:30.859Z,79.30
2018-05-27T09:21:59.131Z,79.00
2018-05-27T09:24:27.375Z,78.40
2018-05-27T09:26:55.628Z,79.20
2018-05-27T09:29:24.869Z,78.70
2018-05-27T09:31:53.876Z,76.90
2018-05-27T09:34:22.248Z,76.80
2018-05-27T09:36:50.943Z,75.90
2018-05-27T09:39:19.207Z,77.00
2018-05-27T09:41:48.279Z,75.30
2018-05-27T09:44:16.556Z,73.40
2018-05-27T09:46:44.808Z,74.00
2018-05-27T09:49:13.062Z,74.20
2018-05-27T09:51:41.856Z,73.40
2018-05-27T09:54:10.104Z,74.40
2018-05-27T09:56:38.347Z,75.00
2018-05-27T09:59:06.614Z,74.00
2018-05-27T10:01:34.860Z,74.40
2018-05-27T10:04:03.120Z,72.60
2018-05-27T10:06:31.396Z,71.80
2018-05-27T10:08:59.639Z,67.60
2018-05-27T10:11:27.877Z,72.00
2018-05-27T10:13:56.584Z,68.60
2018-05-27T10:16:24.847Z,67.00
2018-05-27T10:18:53.412Z,65.20
2018-05-27T10:21:22.478Z,66.40
2018-05-27T10:23:50.712Z,66.20
2018-05-27T10:26:19.006Z,65.80
2018-05-27T10:28:48.040Z,64.90
2018-05-27T10:31:16.284Z,65.10
2018-05-27T10:33:45.312Z,63.10
2018-05-27T10:36:13.922Z,63.10
2018-05-27T10:38:42.164Z,64.70
2018-05-27T10:41:10.482Z,64.70
2018-05-27T10:43:38.732Z,59.70
2018-05-27T10:46:06.977Z,57.60
2018-05-27T10:48:36.956Z,58.70
2018-05-27T10:51:05.242Z,56.80
2018-05-27T10:53:33.999Z,57.90
2018-05-27T10:56:02.240Z,59.00
2018-05-27T10:58:32.464Z,59.50
2018-05-27T11:01:01.472Z,51.20
2018-05-27T11:03:29.732Z,51.10
2018-05-27T11:05:58.767Z,56.20
2018-05-27T11:08:27.012Z,56.10
2018-05-27T11:10:55.265Z,55.10
2018-05-27T11:13:23.535Z,56.60
2018-05-27T11:15:51.777Z,55.60
2018-05-27T11:18:20.955Z,54.40
2018-05-27T11:20:50.576Z,56.30
2018-05-27T11:23:18.824Z,48.90
2018-05-27T11:25:47.080Z,51.90
2018-05-27T11:28:17.508Z,44.10
2018-05-27T11:30:47.015Z,43.40
2018-05-27T11:33:15.266Z,43.50
2018-05-27T11:35:43.622Z,43.20
2018-05-27T11:38:11.919Z,45.00
2018-05-27T11:40:40.183Z,43.70
2018-05-27T11:43:08.755Z,37.30
2018-05-27T11:45:37.005Z,39.70
2018-05-27T11:48:05.293Z,38.40
2018-05-27T11:50:33.600Z,35.40
2018-05-27T11:53:01.840Z,37.50
2018-05-27T11:55:30.277Z,39.00
2018-05-27T11:57:58.539Z,38.30
2018-05-27T12:00:26.910Z,36.90
2018-05-27T12:02:56.051Z,32.70
2018-05-27T12:05:25.176Z,34.10
2018-05-27T12:07:53.419Z,34.10
2018-05-27T12:10:23.116Z,30.90
2018-05-27T12:12:51.480Z,31.00
2018-05-27T12:15:20.672Z,32.90
2018-05-27T12:17:48.919Z,31.90
2018-05-27T12:20:17.253Z,31.40
2018-05-27T12:22:46.424Z,30.10
2018-05-27T12:25:14.851Z,30.10
2018-05-27T12:27:43.270Z,31.80
2018-05-27T12:30:11.669Z,30.10
2018-05-27T12:32:39.868Z,27.40
2018-05-27T12:35:08.128Z,29.70
2018-05-27T12:37:36.371Z,30.00
2018-05-27T12:40:04.616Z,28.20
2018-05-27T12:42:34.112Z,27.60
2018-05-27T12:45:04.313Z,27.80
2018-05-27T12:47:32.683Z,27.70
2018-05-27T12:50:01.438Z,27.90
2018-05-27T12:52:29.771Z,28.60
2018-05-27T12:54:58.815Z,30.80
2018-05-27T12:57:27.141Z,30.60
2018-05-27T12:59:56.147Z,31.80
2018-05-27T13:02:24.540Z,31.80
2018-05-27T13:04:53.563Z,33.10
2018-05-27T13:07:24.017Z,33.10
2018-05-27T13:09:52.272Z,33.90
2018-05-27T13:12:20.580Z,34.00
2018-05-27T13:14:48.825Z,33.50
2018-05-27T13:17:17.123Z,34.60
2018-05-27T13:19:45.635Z,29.20
2018-05-27T13:22:14.929Z,29.30
2018-05-27T13:24:43.957Z,27.90
2018-05-27T13:27:12.215Z,27.90
2018-05-27T13:29:40.538Z,27.10
2018-05-27T13:32:08.772Z,28.70
2018-05-27T13:34:37.240Z,24.30
2018-05-27T13:37:06.255Z,26.00
2018-05-27T13:39:34.507Z,26.00
2018-05-27T13:42:04.720Z,25.20
2018-05-27T13:44:35.020Z,24.10
2018-05-27T13:47:03.337Z,24.00
2018-05-27T13:49:31.699Z,26.00
2018-05-27T13:52:00.729Z,26.00
2018-05-27T13:54:30.892Z,25.80
2018-05-27T13:56:59.652Z,24.20
2018-05-27T13:59:27.998Z,26.90
2018-05-27T14:01:57.006Z,24.40
2018-05-27T14:04:25.352Z,24.50
2018-05-27T14:06:53.900Z,25.60
2018-05-27T14:09:22.127Z,25.50
2018-05-27T14:11:51.161Z,24.30
2018-05-27T14:14:19.479Z,24.30
2018-05-27T14:16:47.731Z,24.90
2018-05-27T14:19:16.081Z,24.70
2018-05-27T14:21:44.324Z,25.00
2018-05-27T14:24:13.625Z,23.20
2018-05-27T14:26:42.025Z,23.20
2018-05-27T14:29:10.268Z,23.20
2018-05-27T14:31:38.719Z,24.00
2018-05-27T14:34:07.128Z,24.90
2018-05-27T14:36:35.492Z,25.00
2018-05-27T14:39:03.869Z,25.10
2018-05-27T14:41:32.334Z,24.80
2018-05-27T14:44:00.625Z,24.80
2018-05-27T14:46:29.034Z,24.70
2018-05-27T14:48:59.003Z,24.50
2018-05-27T14:51:27.309Z,24.40
2018-05-27T14:53:55.559Z,24.70
2018-05-27T14:56:23.853Z,24.40
2018-05-27T14:58:52.127Z,24.70
2018-05-27T15:01:20.506Z,24.50
2018-05-27T15:03:48.973Z,25.70
2018-05-27T15:06:17.264Z,25.80
2018-05-27T15:08:45.507Z,26.50
2018-05-27T15:11:13.784Z,26.80
2018-05-27T15:13:42.120Z,27.30
2018-05-27T15:16:10.667Z,26.70
2018-05-27T15:18:38.931Z,26.80
2018-05-27T15:21:07.180Z,27.30
2018-05-27T15:23:35.644Z,27.60
2018-05-27T15:26:04.733Z,27.70
2018-05-27T15:28:32.980Z,27.70
2018-05-27T15:31:01.398Z,27.70
2018-05-27T15:33:30.424Z,28.40
2018-05-27T15:35:58.672Z,28.40
2018-05-27T15:38:26.925Z,28.60
2018-05-27T15:40:55.209Z,28.90
2018-05-27T15:43:23.447Z,29.50
2018-05-27T15:45:52.751Z,29.30
2018-05-27T15:48:22.309Z,29.80
2018-05-27T15:50:50.536Z,30.00
2018-05-27T15:53:18.778Z,30.40
2018-05-27T15:55:47.924Z,31.40
2018-05-27T15:58:16.183Z,31.80
2018-05-27T16:00:44.433Z,31.80
2018-05-27T16:03:12.704Z,31.80
2018-05-27T16:05:40.956Z,32.00
2018-05-27T16:08:09.204Z,31.80
2018-05-27T16:10:37.530Z,31.50
2018-05-27T16:13:05.801Z,31.60
2018-05-27T16:15:34.067Z,31.80
2018-05-27T16:18:03.891Z,32.20
2018-05-27T16:20:32.138Z,32.20
2018-05-27T16:23:00.612Z,32.70
2018-05-27T16:25:29.439Z,33.10
2018-05-27T16:27:57.672Z,33.40
2018-05-27T16:30:25.927Z,33.10
2018-05-27T16:32:54.372Z,33.20
2018-05-27T16:35:22.616Z,33.40
2018-05-27T16:37:51.624Z,33.50
2018-05-27T16:40:20.660Z,33.40
2018-05-27T16:42:48.912Z,33.40
2018-05-27T16:45:17.156Z,33.40
2018-05-27T16:47:45.424Z,33.40
2018-05-27T16:50:13.671Z,33.90
2018-05-27T16:52:41.932Z,34.00
2018-05-27T16:55:10.241Z,34.80
2018-05-27T16:57:38.486Z,34.60
2018-05-27T17:00:06.791Z,34.70
2018-05-27T17:02:35.418Z,35.00
2018-05-27T17:05:04.408Z,35.40
2018-05-27T17:07:35.563Z,34.90
2018-05-27T17:10:04.705Z,35.00
2018-05-27T17:12:32.931Z,35.00
2018-05-27T17:15:01.180Z,35.40
2018-05-27T17:17:29.721Z,35.20
2018-05-27T17:19:57.972Z,34.90
2018-05-27T17:22:26.255Z,34.80
2018-05-27T17:24:54.650Z,35.00
2018-05-27T17:27:23.345Z,34.70
2018-05-27T17:29:51.588Z,34.80
2018-05-27T17:32:19.872Z,34.70
2018-05-27T17:34:48.952Z,34.80
2018-05-27T17:37:17.956Z,35.20
2018-05-27T17:39:46.667Z,35.10
2018-05-27T17:42:14.902Z,35.10
2018-05-27T17:44:43.149Z,35.20
2018-05-27T17:47:11.453Z,35.30
2018-05-27T17:49:40.456Z,35.50
2018-05-27T17:52:09.469Z,35.60
2018-05-27T17:54:37.740Z,35.60
2018-05-27T17:57:05.988Z,36.00
2018-05-27T17:59:34.228Z,36.10
2018-05-27T18:02:02.576Z,36.40
2018-05-27T18:04:30.830Z,36.30
2018-05-27T18:06:59.076Z,36.60
2018-05-27T18:09:27.344Z,37.00
2018-05-27T18:11:56.356Z,37.40
2018-05-27T18:14:24.595Z,37.40
2018-05-27T18:16:52.872Z,37.20
2018-05-27T18:19:21.123Z,37.80
2018-05-27T18:21:49.380Z,37.90
2018-05-27T18:24:18.455Z,38.30
2018-05-27T18:26:46.706Z,38.30
2018-05-27T18:29:15.632Z,39.30
2018-05-27T18:31:43.922Z,39.10
2018-05-27T18:34:12.919Z,39.90
2018-05-27T18:36:41.156Z,39.90
2018-05-27T18:39:09.424Z,39.70
2018-05-27T18:41:37.668Z,40.80
2018-05-27T18:44:05.908Z,40.50
2018-05-27T18:46:34.484Z,40.40
2018-05-27T18:49:02.708Z,40.50
2018-05-27T18:51:30.964Z,40.40
2018-05-27T18:53:59.264Z,41.10
2018-05-27T18:56:27.509Z,41.10
2018-05-27T18:58:55.750Z,42.40
2018-05-27T19:01:24.012Z,41.80
2018-05-27T19:03:52.244Z,41.70
2018-05-27T19:06:21.701Z,42.20
2018-05-27T19:08:50.155Z,42.20
2018-05-27T19:11:18.416Z,42.00
2018-05-27T19:13:46.671Z,42.30
2018-05-27T19:16:14.964Z,42.60
2018-05-27T19:18:43.203Z,42.80
2018-05-27T19:21:11.444Z,43.20
2018-05-27T19:23:39.716Z,43.00
2018-05-27T19:26:08.014Z,43.10
2018-05-27T19:28:36.249Z,44.60
2018-05-27T19:31:05.608Z,43.60
2018-05-27T19:33:33.838Z,44.20
2018-05-27T19:36:02.080Z,44.30
2018-05-27T19:38:30.348Z,45.20
2018-05-27T19:40:59.367Z,45.40
2018-05-27T19:43:28.450Z,46.40
2018-05-27T19:45:56.737Z,46.40
2018-05-27T19:48:25.743Z,48.40
2018-05-27T19:50:53.987Z,48.30
2018-05-27T19:53:22.946Z,47.60
2018-05-27T19:55:51.168Z,49.10
2018-05-27T19:58:20.178Z,48.50
2018-05-27T20:00:48.455Z,48.40
2018-05-27T20:03:16.696Z,47.40
2018-05-27T20:05:44.939Z,48.00
2018-05-27T20:08:13.204Z,48.00
2018-05-27T20:10:41.464Z,48.10
2018-05-27T20:13:09.705Z,47.90
2018-05-27T20:15:38.036Z,48.70
2018-05-27T20:18:06.283Z,48.50
2018-05-27T20:20:34.519Z,49.70
2018-05-27T20:23:02.880Z,49.30
2018-05-27T20:25:31.138Z,49.60
2018-05-27T20:27:59.521Z,50.90
2018-05-27T20:30:27.779Z,49.50
2018-05-27T20:32:56.235Z,49.80
2018-05-27T20:35:25.244Z,49.90
2018-05-27T20:37:53.651Z,49.90
2018-05-27T20:40:21.984Z,49.60
2018-05-27T20:42:51.369Z,50.10
2018-05-27T20:45:20.404Z,50.20
2018-05-27T20:47:48.651Z,50.10
2018-05-27T20:50:17.811Z,50.10
2018-05-27T20:52:46.060Z,50.00
2018-05-27T20:55:14.404Z,50.70
2018-05-27T20:57:44.296Z,52.10
2018-05-27T21:00:12.756Z,52.10
2018-05-27T21:02:41.000Z,51.00
2018-05-27T21:05:09.248Z,50.70
2018-05-27T21:07:37.524Z,51.50
2018-05-27T21:10:06.535Z,51.90
2018-05-27T21:12:34.784Z,51.90
2018-05-27T21:15:03.052Z,51.40
2018-05-27T21:17:31.304Z,52.00
2018-05-27T21:19:59.548Z,51.90
2018-05-27T21:22:28.126Z,51.50
2018-05-27T21:24:57.930Z,52.10
2018-05-27T21:27:26.168Z,52.10
2018-05-27T21:29:54.452Z,53.50
2018-05-27T21:32:22.697Z,54.80
2018-05-27T21:34:51.134Z,53.60
2018-05-27T21:37:19.391Z,53.30
2018-05-27T21:39:48.398Z,54.50
2018-05-27T21:42:16.956Z,54.50
2018-05-27T21:44:48.644Z,55.50
2018-05-27T21:47:16.892Z,54.50
2018-05-27T21:49:45.160Z,54.50
2018-05-27T21:52:13.439Z,54.10
2018-05-27T21:54:41.690Z,53.40
2018-05-27T21:57:09.932Z,53.60
2018-05-27T21:59:38.198Z,53.20
2018-05-27T22:02:06.440Z,53.90
2018-05-27T22:04:35.171Z,55.20
2018-05-27T22:07:04.288Z,57.20
2018-05-27T22:09:32.536Z,56.90
2018-05-27T22:12:01.548Z,56.60
2018-05-27T22:14:30.583Z,55.50
2018-05-27T22:16:58.904Z,55.60
2018-05-27T22:19:27.907Z,56.10
2018-05-27T22:21:56.176Z,56.10
2018-05-27T22:24:24.423Z,55.40
2018-05-27T22:26:52.680Z,55.00
2018-05-27T22:29:21.028Z,54.70
2018-05-27T22:31:49.304Z,54.90
2018-05-27T22:34:17.559Z,56.90
2018-05-27T22:36:47.208Z,56.30
2018-05-27T22:39:15.461Z,56.20
2018-05-27T22:41:43.899Z,56.30
2018-05-27T22:44:12.167Z,56.20
2018-05-27T22:46:40.420Z,56.30
2018-05-27T22:49:08.671Z,56.10
2018-05-27T22:51:37.485Z,57.50
2018-05-27T22:54:05.731Z,57.10
2018-05-27T22:56:33.985Z,57.30
2018-05-27T22:59:02.270Z,56.60
2018-05-27T23:01:32.404Z,57.50
2018-05-27T23:04:00.644Z,57.50
2018-05-27T23:06:28.916Z,57.70
2018-05-27T23:08:57.155Z,58.00
2018-05-27T23:11:25.411Z,57.90
2018-05-27T23:13:53.943Z,57.70
2018-05-27T23:16:22.892Z,57.70
2018-05-27T23:18:51.160Z,57.70
2018-05-27T23:21:20.198Z,58.90
2018-05-27T23:23:48.456Z,58.80
2018-05-27T23:26:16.705Z,58.40
2018-05-27T23:28:44.974Z,59.50
2018-05-27T23:31:14.904Z,62.60
2018-05-27T23:33:43.166Z,62.60
2018-05-27T23:36:11.769Z,67.40
2018-05-27T23:38:40.033Z,66.60
2018-05-27T23:41:09.045Z,66.00
2018-05-27T23:43:37.320Z,66.00
2018-05-27T23:46:05.575Z,66.10
2018-05-27T23:48:33.822Z,71.40
2018-05-27T23:51:02.116Z,70.30
2018-05-27T23:53:30.360Z,68.00
2018-05-27T23:55:58.604Z,71.80
2018-05-27T23:58:27.625Z,74.30
